Krusa, Denmark
Current Conditions -  °F | °C
As of 7:20 PM on Monday 22 Dec 2014 (Local Time) from ETGG Reporting Station
Light Rain Light Rain  
Wind Chill: 40°   Ceiling: 600
Heat Index: 48°   Visibility: 2.8mi
Dew Point: 46°   Wind: 25mph
Humidity: 93%   Direction: 270°W
Pressure: 29.65"   Gusts: NA
Location:  54.85°N, 9.4°E
Report Text: ETGG 221820Z 27022KT 4500 -RADZ BR BKN006 09/08 Q1004 YLO
Loading
Personal Weather Stations






























Interactive Weather Map New forecast layout! Learn more

10-Day Weather Forecast

Advertisements
Track Severe Weather on mobile